Time;durP1;ratioP1;P1;durP2;ratioP2;P2;SDS_P1;SDS_P2;PMS_P1;PMS_P2;Temp;Humidity;BMP_temperature;BMP_pressure;BME280_temperature;BME280_humidity;BME280_pressure;Samples;Min_cycle;Max_cycle;Signal;HPM_P1;HPM_P2
2021/09/18 00:01:45;;;;;;;3.33;2.40;;;21.80;69.70;;;;;;5053568;28;20113;-44
2021/09/18 00:04:11;;;;;;;3.67;2.35;;;21.80;69.60;;;;;;5054282;28;20028;-43
2021/09/18 00:06:36;;;;;;;3.45;2.40;;;21.90;69.60;;;;;;5053478;28;20033;-44
2021/09/18 00:09:02;;;;;;;3.88;2.85;;;21.80;69.60;;;;;;5053032;28;20049;-48
2021/09/18 00:11:27;;;;;;;3.28;2.55;;;21.80;69.60;;;;;;5054068;28;20025;-44
2021/09/18 00:13:53;;;;;;;3.42;2.38;;;21.80;69.60;;;;;;5054502;28;20033;-47
2021/09/18 00:16:18;;;;;;;4.07;2.95;;;21.80;69.50;;;;;;5053814;28;20029;-46
2021/09/18 00:18:44;;;;;;;4.00;3.03;;;21.80;69.40;;;;;;5057555;28;20048;-44
2021/09/18 00:21:09;;;;;;;4.13;2.55;;;21.80;69.60;;;;;;5057647;28;20076;-45
2021/09/18 00:23:34;;;;;;;3.30;2.72;;;21.80;69.60;;;;;;5056925;28;20097;-46
2021/09/18 00:26:00;;;;;;;4.03;2.85;;;21.80;69.50;;;;;;5055845;28;20039;-44
2021/09/18 00:28:25;;;;;;;4.22;3.10;;;21.70;69.40;;;;;;5056573;28;20025;-44
2021/09/18 00:30:51;;;;;;;3.78;2.90;;;21.80;69.60;;;;;;5057833;28;20032;-47
2021/09/18 00:33:16;;;;;;;4.63;2.83;;;21.70;69.50;;;;;;5066153;28;20455;-44
2021/09/18 00:35:41;;;;;;;3.92;2.65;;;21.70;69.60;;;;;;5076213;28;20129;-45
2021/09/18 00:38:07;;;;;;;3.22;2.45;;;21.70;69.60;;;;;;5077252;28;20058;-43
2021/09/18 00:40:32;;;;;;;3.45;2.65;;;21.70;69.60;;;;;;5077604;28;20033;-44
2021/09/18 00:42:58;;;;;;;3.38;2.60;;;21.70;69.70;;;;;;5076468;28;20111;-44
2021/09/18 00:45:23;;;;;;;4.82;2.88;;;21.70;69.60;;;;;;5077031;28;20108;-44
2021/09/18 00:47:48;;;;;;;3.13;2.53;;;21.70;69.60;;;;;;5077339;28;20025;-43
2021/09/18 00:50:14;;;;;;;4.13;2.85;;;21.70;69.50;;;;;;5076017;28;20028;-44
2021/09/18 00:52:39;;;;;;;3.22;2.63;;;21.70;69.50;;;;;;5077170;28;20111;-44
2021/09/18 00:55:05;;;;;;;4.07;3.13;;;21.70;69.50;;;;;;5075926;28;20020;-45
2021/09/18 00:57:30;;;;;;;3.03;2.50;;;21.70;69.50;;;;;;5076907;28;20021;-44
2021/09/18 01:00:02;;;;;;;3.65;2.60;;;21.60;69.60;;;;;;5077436;28;20093;-44
2021/09/18 01:02:27;;;;;;;3.85;2.85;;;21.70;69.50;;;;;;5076438;28;20025;-43
2021/09/18 01:04:53;;;;;;;4.55;2.70;;;21.60;69.40;;;;;;5076510;28;20051;-44
2021/09/18 01:07:18;;;;;;;3.78;3.00;;;21.60;69.20;;;;;;5076748;28;20086;-44
2021/09/18 01:09:44;;;;;;;3.90;3.08;;;21.60;69.30;;;;;;5075409;28;20053;-44
2021/09/18 01:12:09;;;;;;;3.78;3.00;;;21.70;69.50;;;;;;5077152;28;20435;-44
2021/09/18 01:14:35;;;;;;;4.03;2.90;;;21.70;69.30;;;;;;5076259;28;20040;-43
2021/09/18 01:17:00;;;;;;;3.67;3.08;;;21.60;69.30;;;;;;5075876;28;20029;-45
2021/09/18 01:19:26;;;;;;;4.35;3.20;;;21.60;69.20;;;;;;5076424;28;20031;-43
2021/09/18 01:21:51;;;;;;;3.53;3.13;;;21.60;69.20;;;;;;5075829;28;20516;-44
2021/09/18 01:24:16;;;;;;;3.60;3.03;;;21.60;69.20;;;;;;5076632;28;20025;-44
2021/09/18 01:26:42;;;;;;;4.57;3.13;;;21.60;69.30;;;;;;5074266;28;20033;-45
2021/09/18 01:29:08;;;;;;;3.95;3.20;;;21.60;69.20;;;;;;5075353;28;20068;-43
2021/09/18 01:31:33;;;;;;;3.92;3.22;;;21.60;69.20;;;;;;5076288;28;20029;-48
2021/09/18 01:33:58;;;;;;;3.67;2.83;;;21.60;69.30;;;;;;5076253;28;20028;-44
2021/09/18 01:36:24;;;;;;;3.97;2.80;;;21.60;69.30;;;;;;5075227;28;20530;-44
2021/09/18 01:38:49;;;;;;;3.35;2.78;;;21.60;69.20;;;;;;5076360;28;20038;-44
2021/09/18 01:41:15;;;;;;;3.58;3.08;;;21.60;69.20;;;;;;5076085;28;20020;-43
2021/09/18 01:43:40;;;;;;;3.33;3.03;;;21.60;69.30;;;;;;5075178;28;20029;-44
2021/09/18 01:46:05;;;;;;;5.50;2.97;;;21.60;69.20;;;;;;5075700;28;20040;-44
2021/09/18 01:48:31;;;;;;;3.67;2.92;;;21.60;69.20;;;;;;5075020;28;20071;-44
2021/09/18 01:51:00;;;;;;;3.97;2.80;;;21.60;69.30;;;;;;5076007;28;20032;-43
2021/09/18 01:53:27;;;;;;;5.72;2.83;;;21.50;69.90;;;;;;5076232;28;20025;-45
2021/09/18 01:55:53;;;;;;;3.58;2.97;;;21.50;69.30;;;;;;5074433;28;20028;-44
2021/09/18 01:58:18;;;;;;;3.85;3.38;;;21.50;69.30;;;;;;5075697;28;20025;-44
2021/09/18 02:00:43;;;;;;;4.00;3.08;;;21.50;69.40;;;;;;5076247;28;20035;-46
2021/09/18 02:03:09;;;;;;;3.42;2.85;;;21.50;69.30;;;;;;5074922;28;20024;-46
2021/09/18 02:05:34;;;;;;;4.15;2.92;;;21.50;69.40;;;;;;5075179;28;20035;-45
2021/09/18 02:08:00;;;;;;;3.65;3.15;;;21.50;69.30;;;;;;5075846;28;20025;-44
2021/09/18 02:10:25;;;;;;;4.35;3.15;;;21.50;69.50;;;;;;5074668;28;20032;-44
2021/09/18 02:12:51;;;;;;;3.38;2.78;;;21.50;69.40;;;;;;5075670;28;20062;-44
2021/09/18 02:15:16;;;;;;;3.85;2.88;;;21.50;69.40;;;;;;5074227;28;20083;-44
2021/09/18 02:17:41;;;;;;;3.83;3.10;;;21.50;69.50;;;;;;5074819;28;20478;-44
2021/09/18 02:20:07;;;;;;;3.35;2.78;;;21.50;69.40;;;;;;5075234;28;20025;-44
2021/09/18 02:22:32;;;;;;;4.18;3.30;;;21.50;69.40;;;;;;5074597;28;20109;-46
2021/09/18 02:24:57;;;;;;;3.50;2.90;;;21.50;69.30;;;;;;5075126;28;20055;-49
2021/09/18 02:27:23;;;;;;;3.28;2.97;;;21.50;69.30;;;;;;5075078;28;20043;-52
2021/09/18 02:29:48;;;;;;;3.80;3.22;;;21.40;69.40;;;;;;5074465;28;20063;-43
2021/09/18 02:32:14;;;;;;;3.63;3.00;;;21.40;69.40;;;;;;5075384;28;20028;-47
2021/09/18 02:34:39;;;;;;;3.97;3.30;;;21.40;69.40;;;;;;5074706;28;20020;-46
2021/09/18 02:37:04;;;;;;;3.83;3.25;;;21.40;69.30;;;;;;5074022;28;20107;-49
2021/09/18 02:39:30;;;;;;;3.53;3.00;;;21.40;69.40;;;;;;5074554;28;20024;-49
2021/09/18 02:41:55;;;;;;;4.30;3.58;;;21.40;69.30;;;;;;5074352;28;20034;-45
2021/09/18 02:44:21;;;;;;;3.78;3.00;;;21.50;69.40;;;;;;5074539;28;20190;-44
2021/09/18 02:46:46;;;;;;;3.70;3.30;;;21.40;69.40;;;;;;5074781;28;20025;-45
2021/09/18 02:49:12;;;;;;;3.17;2.88;;;21.40;69.50;;;;;;5074130;28;20028;-48
2021/09/18 02:51:37;;;;;;;3.70;3.17;;;21.40;69.50;;;;;;5075305;28;20020;-44
2021/09/18 02:54:03;;;;;;;4.25;3.00;;;21.40;69.50;;;;;;5075397;28;20052;-51
2021/09/18 02:56:28;;;;;;;5.00;3.50;;;21.40;69.60;;;;;;5073621;28;20048;-45
2021/09/18 02:58:54;;;;;;;4.60;3.60;;;21.40;69.50;;;;;;5074885;28;20081;-45
2021/09/18 03:01:19;;;;;;;4.22;3.20;;;21.40;69.40;;;;;;5075141;28;20051;-46
2021/09/18 03:03:45;;;;;;;3.42;2.88;;;21.40;69.50;;;;;;5073788;28;20024;-44
2021/09/18 03:06:10;;;;;;;4.68;3.33;;;21.40;69.40;;;;;;5074698;28;20028;-47
2021/09/18 03:08:35;;;;;;;3.70;3.30;;;21.40;69.50;;;;;;5073500;28;20079;-46
2021/09/18 03:11:01;;;;;;;4.90;3.22;;;21.40;69.50;;;;;;5074789;28;20085;-44
2021/09/18 03:13:26;;;;;;;5.28;3.35;;;21.40;69.50;;;;;;5074790;28;20025;-49
2021/09/18 03:15:51;;;;;;;3.70;3.05;;;21.30;69.50;;;;;;5073420;28;20363;-46
2021/09/18 03:18:17;;;;;;;3.33;2.90;;;21.30;69.50;;;;;;5074729;28;20024;-46
2021/09/18 03:20:42;;;;;;;4.25;3.13;;;21.40;70.10;;;;;;5074807;28;20032;-50
2021/09/18 03:23:08;;;;;;;4.18;3.13;;;21.40;69.50;;;;;;5073757;28;20044;-47
2021/09/18 03:25:33;;;;;;;4.53;3.22;;;21.30;69.60;;;;;;5074390;28;20052;-50
2021/09/18 03:28:00;;;;;;;3.40;2.95;;;21.30;69.50;;;;;;5074591;28;20466;-44
2021/09/18 03:30:25;;;;;;;4.30;3.33;;;21.40;69.40;;;;;;5073814;28;20386;-52
2021/09/18 03:32:51;;;;;;;3.78;3.17;;;21.30;69.40;;;;;;5074557;28;20082;-46
2021/09/18 03:35:16;;;;;;;3.40;2.95;;;21.30;69.50;;;;;;5073164;28;20060;-47
2021/09/18 03:37:41;;;;;;;5.20;3.38;;;21.30;69.50;;;;;;5074353;28;20024;-48
2021/09/18 03:40:07;;;;;;;3.38;2.92;;;21.30;69.50;;;;;;5074115;28;20029;-46
2021/09/18 03:42:32;;;;;;;4.40;3.40;;;21.30;70.20;;;;;;5073648;28;20355;-44
2021/09/18 03:44:58;;;;;;;3.80;3.22;;;21.30;69.40;;;;;;5074008;28;20028;-49
2021/09/18 03:47:23;;;;;;;3.75;2.88;;;21.30;69.50;;;;;;5074576;28;20071;-52
2021/09/18 03:49:48;;;;;;;4.53;3.75;;;21.30;69.60;;;;;;5073246;28;20035;-45
2021/09/18 03:52:14;;;;;;;3.92;3.28;;;21.30;69.60;;;;;;5076708;28;20104;-43
2021/09/18 03:54:39;;;;;;;4.30;3.10;;;21.30;69.60;;;;;;5077618;28;20017;-43
2021/09/18 03:57:05;;;;;;;4.70;3.33;;;21.30;69.60;;;;;;5076698;28;20078;-44
2021/09/18 03:59:30;;;;;;;4.75;3.22;;;21.30;69.50;;;;;;5077983;28;20024;-44
2021/09/18 04:01:56;;;;;;;4.13;3.40;;;21.30;69.50;;;;;;5077164;28;20024;-43
2021/09/18 04:04:21;;;;;;;3.83;3.40;;;21.30;69.30;;;;;;5074162;28;20036;-46
2021/09/18 04:06:48;;;;;;;3.78;3.30;;;21.30;69.40;;;;;;5077786;28;20028;-43
2021/09/18 04:09:13;;;;;;;4.53;3.55;;;21.30;69.50;;;;;;5076720;28;20056;-43
2021/09/18 04:11:39;;;;;;;4.82;3.33;;;21.30;69.50;;;;;;5077927;28;20025;-44
2021/09/18 04:14:04;;;;;;;4.20;3.20;;;21.30;69.50;;;;;;5077383;28;20024;-44
2021/09/18 04:16:29;;;;;;;5.88;3.80;;;21.20;69.60;;;;;;5076712;28;20082;-44
2021/09/18 04:18:55;;;;;;;3.90;3.17;;;21.20;69.60;;;;;;5077493;28;20074;-44
2021/09/18 04:21:20;;;;;;;4.45;3.40;;;21.20;69.50;;;;;;5077501;28;20463;-43
2021/09/18 04:23:46;;;;;;;4.63;3.75;;;21.30;69.50;;;;;;5076446;28;20016;-44
2021/09/18 04:26:11;;;;;;;4.70;4.18;;;21.30;69.50;;;;;;5077123;28;20035;-48
2021/09/18 04:28:36;;;;;;;4.43;3.60;;;21.30;69.40;;;;;;5076460;28;20520;-44
2021/09/18 04:31:02;;;;;;;4.38;3.80;;;21.30;69.30;;;;;;5077573;28;20025;-44
2021/09/18 04:33:27;;;;;;;4.55;3.63;;;21.30;69.40;;;;;;5066802;28;20036;-44
2021/09/18 04:35:53;;;;;;;4.40;3.55;;;21.20;69.50;;;;;;5055996;28;20032;-51
2021/09/18 04:38:18;;;;;;;4.97;3.88;;;21.20;69.50;;;;;;5057682;28;20040;-47
2021/09/18 04:40:44;;;;;;;4.10;3.70;;;21.20;69.40;;;;;;5057380;28;20067;-45
2021/09/18 04:43:09;;;;;;;4.40;3.28;;;21.30;69.40;;;;;;5056322;28;20025;-48
2021/09/18 04:45:35;;;;;;;3.80;3.40;;;21.20;69.40;;;;;;5057054;28;20160;-44
2021/09/18 04:48:00;;;;;;;4.72;3.78;;;21.20;69.60;;;;;;5057053;28;20036;-43
2021/09/18 04:50:26;;;;;;;4.32;3.75;;;21.20;69.50;;;;;;5056089;28;20066;-44
2021/09/18 04:52:51;;;;;;;4.72;3.80;;;21.20;69.60;;;;;;5056988;28;20116;-43
2021/09/18 04:55:16;;;;;;;4.47;3.97;;;21.20;69.60;;;;;;5055916;28;20025;-44
2021/09/18 04:57:42;;;;;;;4.57;3.58;;;21.20;69.50;;;;;;5056846;28;20040;-45
2021/09/18 05:00:07;;;;;;;4.95;4.00;;;21.20;69.50;;;;;;5056903;28;20104;-45
2021/09/18 05:02:33;;;;;;;4.63;3.80;;;21.20;69.60;;;;;;5055728;28;20099;-44
2021/09/18 05:04:58;;;;;;;4.65;4.07;;;21.20;69.50;;;;;;5059177;28;20094;-46
2021/09/18 05:07:23;;;;;;;5.07;4.13;;;21.20;69.60;;;;;;5056565;28;20444;-44
2021/09/18 05:09:49;;;;;;;6.15;3.80;;;21.20;69.60;;;;;;5055384;28;20045;-46
2021/09/18 05:12:14;;;;;;;5.57;4.25;;;21.20;69.50;;;;;;5056691;28;20448;-44
2021/09/18 05:14:40;;;;;;;4.10;3.58;;;21.20;69.60;;;;;;5056281;28;20057;-44
2021/09/18 05:17:05;;;;;;;4.25;3.50;;;21.20;69.60;;;;;;5055585;28;20036;-44
2021/09/18 05:19:30;;;;;;;4.78;3.75;;;21.20;69.50;;;;;;5056480;28;20036;-43
2021/09/18 05:21:56;;;;;;;4.45;3.97;;;21.20;69.60;;;;;;5055683;28;20094;-44
2021/09/18 05:24:21;;;;;;;4.20;3.67;;;21.20;69.60;;;;;;5056273;28;20039;-44
2021/09/18 05:26:46;;;;;;;5.20;4.10;;;21.20;69.60;;;;;;5056643;28;20443;-43
2021/09/18 05:29:12;;;;;;;4.53;4.00;;;21.20;69.50;;;;;;5071195;28;20036;-43
2021/09/18 05:31:37;;;;;;;5.25;4.05;;;21.20;69.60;;;;;;5056514;28;20519;-43
2021/09/18 05:34:03;;;;;;;4.30;3.90;;;21.20;70.20;;;;;;5055896;28;20033;-43
2021/09/18 05:36:28;;;;;;;6.30;4.10;;;21.20;69.50;;;;;;5054850;28;20033;-44
2021/09/18 05:38:53;;;;;;;4.32;3.88;;;21.20;69.40;;;;;;5056414;28;20021;-44
2021/09/18 05:41:19;;;;;;;4.63;4.10;;;21.20;69.60;;;;;;5056332;28;20029;-44
2021/09/18 05:43:44;;;;;;;5.22;4.35;;;21.10;69.50;;;;;;5055181;28;20146;-44
2021/09/18 05:46:10;;;;;;;4.72;4.03;;;21.10;69.50;;;;;;5056176;28;20085;-46
2021/09/18 05:48:35;;;;;;;4.28;3.67;;;21.20;69.50;;;;;;5055232;28;20029;-44
2021/09/18 05:51:01;;;;;;;5.38;3.97;;;21.20;69.60;;;;;;5056043;28;20143;-43
2021/09/18 05:53:26;;;;;;;4.68;3.63;;;21.10;69.60;;;;;;5056023;28;20348;-43
2021/09/18 05:55:51;;;;;;;4.97;4.25;;;21.10;69.50;;;;;;5054775;28;20186;-44
2021/09/18 05:58:17;;;;;;;4.88;4.10;;;21.20;69.30;;;;;;5055704;28;20036;-44
2021/09/18 06:00:42;;;;;;;5.35;4.38;;;21.20;69.50;;;;;;5056068;28;20029;-43
2021/09/18 06:03:07;;;;;;;4.82;4.05;;;21.20;69.40;;;;;;5055026;28;20029;-44
2021/09/18 06:05:33;;;;;;;4.75;4.20;;;21.10;69.50;;;;;;5055225;28;20096;-43
2021/09/18 06:07:58;;;;;;;5.60;4.28;;;21.20;69.70;;;;;;5055157;28;20066;-44
2021/09/18 06:10:24;;;;;;;5.75;3.78;;;21.10;69.60;;;;;;5054627;28;20462;-43
2021/09/18 06:12:49;;;;;;;5.28;3.92;;;21.10;69.50;;;;;;5055878;28;20078;-43
2021/09/18 06:15:15;;;;;;;4.88;3.50;;;21.10;69.50;;;;;;5053615;28;20086;-43
2021/09/18 06:17:40;;;;;;;4.65;3.80;;;21.20;69.60;;;;;;5055845;28;20355;-44
2021/09/18 06:20:05;;;;;;;4.40;3.90;;;21.20;69.40;;;;;;5055791;28;20075;-43
2021/09/18 06:22:31;;;;;;;6.07;4.45;;;21.20;69.50;;;;;;5054475;28;20025;-44
2021/09/18 06:24:56;;;;;;;4.28;3.88;;;21.20;69.50;;;;;;5055030;28;20033;-43
2021/09/18 06:27:22;;;;;;;4.68;4.05;;;21.10;69.50;;;;;;5055126;28;20028;-45
2021/09/18 06:29:47;;;;;;;5.05;3.95;;;21.10;69.60;;;;;;5054296;28;20495;-43
2021/09/18 06:32:13;;;;;;;4.10;3.53;;;21.10;69.60;;;;;;5055228;28;20363;-45
2021/09/18 06:34:38;;;;;;;4.82;4.00;;;21.10;69.60;;;;;;5054883;28;20025;-48
2021/09/18 06:37:04;;;;;;;5.07;3.97;;;21.10;69.50;;;;;;5054330;28;20040;-45
2021/09/18 06:39:29;;;;;;;5.93;3.75;;;21.10;69.50;;;;;;5055199;28;20017;-44
2021/09/18 06:41:55;;;;;;;6.82;4.00;;;21.10;69.60;;;;;;5054384;28;20039;-45
2021/09/18 06:44:20;;;;;;;5.05;3.70;;;21.10;69.80;;;;;;5062254;28;20140;-43
2021/09/18 06:46:45;;;;;;;4.65;3.78;;;21.10;69.80;;;;;;5065856;28;20059;-42
2021/09/18 06:49:11;;;;;;;5.25;4.38;;;21.10;69.70;;;;;;5067020;28;20055;-42
2021/09/18 06:51:36;;;;;;;5.13;3.95;;;21.20;69.70;;;;;;5064361;28;20021;-43
2021/09/18 06:54:02;;;;;;;4.78;4.18;;;21.20;69.40;;;;;;5063610;28;20043;-42
2021/09/18 06:56:27;;;;;;;4.50;3.70;;;21.30;69.50;;;;;;5063654;28;20028;-42
2021/09/18 06:58:55;;;;;;;4.10;3.70;;;21.30;69.40;;;;;;5061971;28;20071;-43
2021/09/18 07:01:21;;;;;;;4.53;4.05;;;21.30;69.30;;;;;;5070289;28;20124;-42
2021/09/18 07:03:46;;;;;;;4.85;3.88;;;21.30;69.40;;;;;;5064119;28;20059;-43
2021/09/18 07:06:11;;;;;;;5.32;3.65;;;21.30;69.30;;;;;;5063643;28;20089;-43
2021/09/18 07:08:37;;;;;;;4.60;4.00;;;21.30;69.20;;;;;;5062286;28;20051;-45
2021/09/18 07:11:02;;;;;;;4.20;3.72;;;21.30;69.20;;;;;;5063187;28;20040;-43
2021/09/18 07:13:29;;;;;;;5.70;4.13;;;21.30;69.20;;;;;;5064625;28;20020;-44
2021/09/18 07:15:54;;;;;;;4.38;3.63;;;21.30;69.30;;;;;;5063344;28;20037;-42
2021/09/18 07:18:19;;;;;;;8.45;3.58;;;21.30;69.20;;;;;;5062544;28;20088;-43
2021/09/18 07:20:45;;;;;;;4.97;3.72;;;21.30;69.20;;;;;;5063137;28;20025;-42
2021/09/18 07:23:10;;;;;;;5.47;3.60;;;21.30;69.20;;;;;;5063197;28;20039;-42
2021/09/18 07:25:36;;;;;;;5.05;3.63;;;21.30;69.30;;;;;;5066021;28;20086;-44
2021/09/18 07:28:01;;;;;;;3.47;3.17;;;21.40;69.20;;;;;;5066964;28;20033;-43
2021/09/18 07:30:27;;;;;;;4.53;3.47;;;21.40;69.20;;;;;;5067695;28;20400;-44
2021/09/18 07:32:52;;;;;;;5.40;3.42;;;21.40;69.10;;;;;;5068321;28;20082;-42
2021/09/18 07:35:18;;;;;;;4.72;3.60;;;21.40;69.00;;;;;;5067629;28;20028;-42
2021/09/18 07:37:43;;;;;;;7.35;3.42;;;21.40;69.20;;;;;;5063370;28;20059;-47
2021/09/18 07:40:09;;;;;;;5.50;3.80;;;21.30;69.70;;;;;;5058157;28;20082;-44
2021/09/18 07:42:34;;;;;;;13.85;4.88;;;21.30;69.60;;;;;;5057496;28;20091;-45
2021/09/18 07:44:59;;;;;;;11.13;5.40;;;21.30;69.80;;;;;;5058168;28;20056;-48
2021/09/18 07:47:25;;;;;;;14.35;4.90;;;21.30;70.00;;;;;;5058084;28;20356;-43
2021/09/18 07:49:51;;;;;;;12.52;5.55;;;21.40;69.80;;;;;;5057304;28;20039;-45
2021/09/18 07:52:16;;;;;;;12.77;5.50;;;21.40;70.00;;;;;;5058010;28;20040;-42
2021/09/18 07:54:42;;;;;;;13.63;5.85;;;21.40;70.00;;;;;;5058107;28;20104;-43
2021/09/18 07:57:07;;;;;;;11.68;6.07;;;21.40;70.00;;;;;;5057260;28;20021;-43
2021/09/18 07:59:32;;;;;;;15.63;7.03;;;21.40;70.10;;;;;;5057855;28;20037;-44
2021/09/18 08:01:58;;;;;;;14.73;6.30;;;21.40;70.10;;;;;;5057061;28;20352;-44
2021/09/18 08:04:23;;;;;;;15.02;6.30;;;21.40;70.10;;;;;;5057928;28;20020;-42
2021/09/18 08:06:48;;;;;;;13.48;6.35;;;21.30;70.10;;;;;;5057771;28;20037;-43
2021/09/18 08:09:14;;;;;;;16.27;6.30;;;21.40;70.30;;;;;;5056715;28;20049;-43
2021/09/18 08:11:39;;;;;;;14.05;5.80;;;21.40;70.40;;;;;;5057784;28;20021;-43
2021/09/18 08:14:05;;;;;;;12.77;6.18;;;21.40;70.50;;;;;;5057599;28;20025;-44
2021/09/18 08:16:30;;;;;;;11.27;5.25;;;21.30;70.50;;;;;;5057035;28;20021;-43
2021/09/18 08:18:56;;;;;;;8.45;5.22;;;21.40;70.10;;;;;;5058042;28;20094;-42
2021/09/18 08:21:21;;;;;;;12.50;5.40;;;21.40;69.90;;;;;;5057475;28;20028;-43
2021/09/18 08:23:46;;;;;;;12.05;5.57;;;21.40;70.40;;;;;;5056284;28;20083;-45
2021/09/18 08:26:12;;;;;;;13.95;5.55;;;21.30;70.60;;;;;;5057548;28;20032;-42
2021/09/18 08:28:37;;;;;;;10.73;6.25;;;21.40;70.70;;;;;;5056537;28;20017;-46
2021/09/18 08:31:03;;;;;;;22.50;8.60;;;21.40;71.20;;;;;;5057417;28;20090;-46
2021/09/18 08:33:28;;;;;;;14.35;6.63;;;21.40;71.70;;;;;;5057197;28;20462;-43
2021/09/18 08:35:53;;;;;;;16.98;8.35;;;21.40;72.10;;;;;;5055944;28;20052;-46
2021/09/18 08:38:19;;;;;;;13.68;7.28;;;21.40;73.50;;;;;;5056611;28;20103;-43
2021/09/18 08:40:46;;;;;;;17.65;7.10;;;21.50;73.60;;;;;;5057866;28;20336;-46
2021/09/18 08:43:11;;;;;;;19.70;6.38;;;21.50;72.30;;;;;;5056932;28;20036;-46
2021/09/18 08:45:37;;;;;;;14.07;7.10;;;21.50;71.80;;;;;;5076333;28;20025;-46
2021/09/18 08:48:02;;;;;;;14.77;6.63;;;21.60;72.50;;;;;;5087016;28;20039;-45
2021/09/18 08:50:28;;;;;;;10.30;6.10;;;21.70;73.00;;;;;;5095998;28;20024;-45
2021/09/18 08:52:53;;;;;;;15.40;5.25;;;21.60;74.20;;;;;;5097528;28;20028;-44
2021/09/18 08:55:19;;;;;;;11.18;4.68;;;21.70;74.20;;;;;;5095982;28;20504;-43
2021/09/18 08:57:44;;;;;;;18.40;4.90;;;22.00;73.40;;;;;;5096341;28;20400;-43
